Terminal Aerodrome Forecast
Issued by NWS

Current Version | Previous Version | Text Only | Print | Product List | Glossary On
Versions: 1 2 3 4 5 6 7 8 9 10 11
000
FTUS44 KHGX 120530
TAFSGR
TAF
KSGR 120530Z 1206/1306 24004KT P6SM BKN250
     FM121300 35012KT P6SM SCT250
     FM130100 33003KT P6SM SKC=

USA.gov is the U.S. government's official web portal to all federal, state and local government web resources and services.